sensor_id;sensor_type;location;lat;lon;timestamp;P1;durP1;ratioP1;P2;durP2;ratioP2
7753;SDS011;3921;42.266;23.122;2023-05-31T00:01:04;4.13;;;3.20;;
7753;SDS011;3921;42.266;23.122;2023-05-31T00:03:31;4.87;;;3.27;;
7753;SDS011;3921;42.266;23.122;2023-05-31T00:05:58;3.27;;;2.97;;
7753;SDS011;3921;42.266;23.122;2023-05-31T00:08:26;5.33;;;3.50;;
7753;SDS011;3921;42.266;23.122;2023-05-31T00:10:53;5.63;;;3.43;;
7753;SDS011;3921;42.266;23.122;2023-05-31T00:13:20;4.50;;;3.33;;
7753;SDS011;3921;42.266;23.122;2023-05-31T00:15:48;4.30;;;3.50;;
7753;SDS011;3921;42.266;23.122;2023-05-31T00:18:15;4.20;;;3.63;;
7753;SDS011;3921;42.266;23.122;2023-05-31T00:20:42;5.67;;;3.10;;
7753;SDS011;3921;42.266;23.122;2023-05-31T00:23:09;5.53;;;3.77;;
7753;SDS011;3921;42.266;23.122;2023-05-31T00:25:38;5.23;;;3.80;;
7753;SDS011;3921;42.266;23.122;2023-05-31T00:28:04;3.90;;;3.50;;
7753;SDS011;3921;42.266;23.122;2023-05-31T00:30:31;5.27;;;3.50;;
7753;SDS011;3921;42.266;23.122;2023-05-31T00:32:58;5.03;;;3.60;;
7753;SDS011;3921;42.266;23.122;2023-05-31T00:35:25;6.63;;;4.33;;
7753;SDS011;3921;42.266;23.122;2023-05-31T00:37:52;4.60;;;3.90;;
7753;SDS011;3921;42.266;23.122;2023-05-31T00:40:19;6.00;;;3.87;;
7753;SDS011;3921;42.266;23.122;2023-05-31T00:42:47;5.50;;;4.20;;
7753;SDS011;3921;42.266;23.122;2023-05-31T00:45:14;5.97;;;4.17;;
7753;SDS011;3921;42.266;23.122;2023-05-31T00:47:40;5.67;;;3.87;;
7753;SDS011;3921;42.266;23.122;2023-05-31T00:50:08;5.50;;;3.93;;
7753;SDS011;3921;42.266;23.122;2023-05-31T00:52:36;5.43;;;3.63;;
7753;SDS011;3921;42.266;23.122;2023-05-31T00:55:03;5.70;;;4.03;;
7753;SDS011;3921;42.266;23.122;2023-05-31T00:57:31;4.90;;;4.00;;
7753;SDS011;3921;42.266;23.122;2023-05-31T00:59:59;5.80;;;3.83;;
7753;SDS011;3921;42.266;23.122;2023-05-31T01:02:26;6.03;;;3.73;;
7753;SDS011;3921;42.266;23.122;2023-05-31T01:04:53;5.87;;;3.87;;
7753;SDS011;3921;42.266;23.122;2023-05-31T01:07:21;6.20;;;4.47;;
7753;SDS011;3921;42.266;23.122;2023-05-31T01:09:49;7.23;;;4.10;;
7753;SDS011;3921;42.266;23.122;2023-05-31T01:12:19;7.10;;;4.20;;
7753;SDS011;3921;42.266;23.122;2023-05-31T01:14:55;5.37;;;4.13;;
7753;SDS011;3921;42.266;23.122;2023-05-31T01:17:35;6.40;;;4.63;;
7753;SDS011;3921;42.266;23.122;2023-05-31T01:20:10;5.73;;;4.40;;
7753;SDS011;3921;42.266;23.122;2023-05-31T01:22:54;5.73;;;4.77;;
7753;SDS011;3921;42.266;23.122;2023-05-31T01:25:44;4.90;;;4.30;;
7753;SDS011;3921;42.266;23.122;2023-05-31T01:28:26;4.57;;;3.87;;
7753;SDS011;3921;42.266;23.122;2023-05-31T01:30:53;5.30;;;4.10;;
7753;SDS011;3921;42.266;23.122;2023-05-31T01:33:21;7.37;;;4.30;;
7753;SDS011;3921;42.266;23.122;2023-05-31T01:35:50;5.70;;;4.67;;
7753;SDS011;3921;42.266;23.122;2023-05-31T01:38:16;7.20;;;4.43;;
7753;SDS011;3921;42.266;23.122;2023-05-31T01:40:43;5.30;;;4.43;;
7753;SDS011;3921;42.266;23.122;2023-05-31T01:43:11;6.87;;;4.20;;
7753;SDS011;3921;42.266;23.122;2023-05-31T01:45:40;5.53;;;4.20;;
7753;SDS011;3921;42.266;23.122;2023-05-31T01:48:07;5.73;;;4.13;;
7753;SDS011;3921;42.266;23.122;2023-05-31T01:50:36;9.20;;;4.27;;
7753;SDS011;3921;42.266;23.122;2023-05-31T01:53:05;6.73;;;3.83;;
7753;SDS011;3921;42.266;23.122;2023-05-31T01:55:32;5.40;;;4.33;;
7753;SDS011;3921;42.266;23.122;2023-05-31T01:57:59;5.87;;;4.37;;
7753;SDS011;3921;42.266;23.122;2023-05-31T02:00:27;6.47;;;4.33;;
7753;SDS011;3921;42.266;23.122;2023-05-31T02:02:58;5.93;;;4.33;;
7753;SDS011;3921;42.266;23.122;2023-05-31T02:05:25;6.23;;;4.50;;
7753;SDS011;3921;42.266;23.122;2023-05-31T02:07:51;5.50;;;4.40;;
7753;SDS011;3921;42.266;23.122;2023-05-31T02:10:19;6.40;;;4.50;;
7753;SDS011;3921;42.266;23.122;2023-05-31T02:12:46;5.87;;;4.33;;
7753;SDS011;3921;42.266;23.122;2023-05-31T02:15:15;5.83;;;4.20;;
7753;SDS011;3921;42.266;23.122;2023-05-31T02:17:44;5.63;;;4.00;;
7753;SDS011;3921;42.266;23.122;2023-05-31T02:20:17;7.50;;;4.50;;
7753;SDS011;3921;42.266;23.122;2023-05-31T02:22:45;6.13;;;4.60;;
7753;SDS011;3921;42.266;23.122;2023-05-31T02:25:12;5.47;;;4.70;;
7753;SDS011;3921;42.266;23.122;2023-05-31T02:27:40;5.83;;;4.57;;
7753;SDS011;3921;42.266;23.122;2023-05-31T02:30:08;6.23;;;4.40;;
7753;SDS011;3921;42.266;23.122;2023-05-31T02:32:36;5.97;;;4.50;;
7753;SDS011;3921;42.266;23.122;2023-05-31T02:35:05;5.50;;;4.60;;
7753;SDS011;3921;42.266;23.122;2023-05-31T02:37:35;7.70;;;5.10;;
7753;SDS011;3921;42.266;23.122;2023-05-31T02:40:03;5.63;;;4.70;;
7753;SDS011;3921;42.266;23.122;2023-05-31T02:42:34;7.47;;;4.90;;
7753;SDS011;3921;42.266;23.122;2023-05-31T02:45:01;5.33;;;4.57;;
7753;SDS011;3921;42.266;23.122;2023-05-31T02:47:28;4.87;;;4.43;;
7753;SDS011;3921;42.266;23.122;2023-05-31T02:49:55;7.60;;;4.70;;
7753;SDS011;3921;42.266;23.122;2023-05-31T02:52:22;5.30;;;4.80;;
7753;SDS011;3921;42.266;23.122;2023-05-31T02:54:51;7.37;;;4.83;;
7753;SDS011;3921;42.266;23.122;2023-05-31T02:57:18;4.97;;;4.50;;
7753;SDS011;3921;42.266;23.122;2023-05-31T02:59:45;5.10;;;4.60;;
7753;SDS011;3921;42.266;23.122;2023-05-31T03:02:13;6.77;;;4.97;;
7753;SDS011;3921;42.266;23.122;2023-05-31T03:04:40;6.23;;;4.70;;
7753;SDS011;3921;42.266;23.122;2023-05-31T03:07:07;7.53;;;5.30;;
7753;SDS011;3921;42.266;23.122;2023-05-31T03:09:37;5.70;;;4.77;;
7753;SDS011;3921;42.266;23.122;2023-05-31T03:12:06;9.50;;;5.10;;
7753;SDS011;3921;42.266;23.122;2023-05-31T03:14:33;8.10;;;5.40;;
7753;SDS011;3921;42.266;23.122;2023-05-31T03:17:00;8.10;;;5.40;;
7753;SDS011;3921;42.266;23.122;2023-05-31T03:19:28;7.60;;;5.20;;
7753;SDS011;3921;42.266;23.122;2023-05-31T03:21:55;9.13;;;5.37;;
7753;SDS011;3921;42.266;23.122;2023-05-31T03:24:22;6.87;;;5.37;;
7753;SDS011;3921;42.266;23.122;2023-05-31T03:26:49;9.47;;;5.57;;
7753;SDS011;3921;42.266;23.122;2023-05-31T03:29:17;6.80;;;5.23;;
7753;SDS011;3921;42.266;23.122;2023-05-31T03:31:44;9.57;;;5.67;;
7753;SDS011;3921;42.266;23.122;2023-05-31T03:34:10;7.53;;;5.27;;
7753;SDS011;3921;42.266;23.122;2023-05-31T03:36:37;8.70;;;5.50;;
7753;SDS011;3921;42.266;23.122;2023-05-31T03:39:04;6.00;;;4.67;;
7753;SDS011;3921;42.266;23.122;2023-05-31T03:41:31;7.00;;;5.43;;
7753;SDS011;3921;42.266;23.122;2023-05-31T03:43:58;7.60;;;5.17;;
7753;SDS011;3921;42.266;23.122;2023-05-31T03:46:26;8.67;;;5.10;;
7753;SDS011;3921;42.266;23.122;2023-05-31T03:48:53;8.47;;;5.43;;
7753;SDS011;3921;42.266;23.122;2023-05-31T03:51:20;6.83;;;5.63;;
7753;SDS011;3921;42.266;23.122;2023-05-31T03:53:47;7.23;;;4.93;;
7753;SDS011;3921;42.266;23.122;2023-05-31T03:56:14;9.47;;;5.50;;
7753;SDS011;3921;42.266;23.122;2023-05-31T03:58:40;7.63;;;4.70;;
7753;SDS011;3921;42.266;23.122;2023-05-31T04:01:07;5.90;;;4.67;;
7753;SDS011;3921;42.266;23.122;2023-05-31T04:03:36;7.73;;;5.33;;
7753;SDS011;3921;42.266;23.122;2023-05-31T04:06:03;7.03;;;5.60;;
7753;SDS011;3921;42.266;23.122;2023-05-31T04:08:31;5.60;;;4.83;;
7753;SDS011;3921;42.266;23.122;2023-05-31T04:10:58;9.07;;;5.20;;
7753;SDS011;3921;42.266;23.122;2023-05-31T04:13:25;7.27;;;5.77;;
7753;SDS011;3921;42.266;23.122;2023-05-31T04:15:52;8.50;;;5.73;;
7753;SDS011;3921;42.266;23.122;2023-05-31T04:18:19;9.57;;;5.90;;
7753;SDS011;3921;42.266;23.122;2023-05-31T04:20:47;8.37;;;6.20;;
7753;SDS011;3921;42.266;23.122;2023-05-31T04:23:14;10.97;;;5.97;;
7753;SDS011;3921;42.266;23.122;2023-05-31T04:25:41;8.00;;;5.57;;
7753;SDS011;3921;42.266;23.122;2023-05-31T04:28:09;6.77;;;5.53;;
7753;SDS011;3921;42.266;23.122;2023-05-31T04:30:37;7.77;;;6.20;;
7753;SDS011;3921;42.266;23.122;2023-05-31T04:33:05;10.07;;;5.90;;
7753;SDS011;3921;42.266;23.122;2023-05-31T04:35:32;6.90;;;5.70;;
7753;SDS011;3921;42.266;23.122;2023-05-31T04:38:01;8.80;;;6.23;;
7753;SDS011;3921;42.266;23.122;2023-05-31T04:40:28;6.17;;;5.57;;
7753;SDS011;3921;42.266;23.122;2023-05-31T04:42:57;10.73;;;5.90;;
7753;SDS011;3921;42.266;23.122;2023-05-31T04:45:23;10.10;;;6.27;;
7753;SDS011;3921;42.266;23.122;2023-05-31T04:47:50;10.17;;;6.30;;
7753;SDS011;3921;42.266;23.122;2023-05-31T04:50:17;9.77;;;6.27;;
7753;SDS011;3921;42.266;23.122;2023-05-31T04:52:44;8.20;;;6.20;;
7753;SDS011;3921;42.266;23.122;2023-05-31T04:55:13;7.53;;;6.40;;
7753;SDS011;3921;42.266;23.122;2023-05-31T04:57:40;11.47;;;7.33;;
7753;SDS011;3921;42.266;23.122;2023-05-31T05:00:07;8.63;;;6.87;;
7753;SDS011;3921;42.266;23.122;2023-05-31T05:02:36;14.33;;;9.67;;
7753;SDS011;3921;42.266;23.122;2023-05-31T05:05:03;51.07;;;35.30;;
7753;SDS011;3921;42.266;23.122;2023-05-31T05:07:32;10.87;;;8.83;;
7753;SDS011;3921;42.266;23.122;2023-05-31T05:10:01;7.90;;;7.10;;
7753;SDS011;3921;42.266;23.122;2023-05-31T05:12:30;10.90;;;7.57;;
7753;SDS011;3921;42.266;23.122;2023-05-31T05:14:57;9.23;;;7.10;;
7753;SDS011;3921;42.266;23.122;2023-05-31T05:17:24;10.80;;;7.70;;
7753;SDS011;3921;42.266;23.122;2023-05-31T05:19:51;14.80;;;12.10;;
7753;SDS011;3921;42.266;23.122;2023-05-31T05:22:17;21.17;;;16.77;;
7753;SDS011;3921;42.266;23.122;2023-05-31T05:24:44;9.33;;;8.00;;
7753;SDS011;3921;42.266;23.122;2023-05-31T05:27:11;9.97;;;7.83;;
7753;SDS011;3921;42.266;23.122;2023-05-31T05:29:39;11.13;;;7.77;;
7753;SDS011;3921;42.266;23.122;2023-05-31T05:32:07;12.10;;;7.23;;
7753;SDS011;3921;42.266;23.122;2023-05-31T05:34:34;12.20;;;8.93;;
7753;SDS011;3921;42.266;23.122;2023-05-31T05:37:01;11.93;;;7.57;;
7753;SDS011;3921;42.266;23.122;2023-05-31T05:39:28;11.83;;;8.07;;
7753;SDS011;3921;42.266;23.122;2023-05-31T05:41:55;14.83;;;7.40;;
7753;SDS011;3921;42.266;23.122;2023-05-31T05:44:28;9.50;;;7.17;;
7753;SDS011;3921;42.266;23.122;2023-05-31T05:46:57;10.57;;;7.17;;
7753;SDS011;3921;42.266;23.122;2023-05-31T05:49:24;13.80;;;7.47;;
7753;SDS011;3921;42.266;23.122;2023-05-31T05:51:50;11.93;;;6.67;;
7753;SDS011;3921;42.266;23.122;2023-05-31T05:54:17;11.70;;;6.93;;
7753;SDS011;3921;42.266;23.122;2023-05-31T05:56:45;15.30;;;7.27;;
7753;SDS011;3921;42.266;23.122;2023-05-31T05:59:12;10.10;;;7.27;;
7753;SDS011;3921;42.266;23.122;2023-05-31T06:01:39;13.53;;;8.10;;
7753;SDS011;3921;42.266;23.122;2023-05-31T06:04:07;15.20;;;7.57;;
7753;SDS011;3921;42.266;23.122;2023-05-31T06:06:34;11.57;;;7.20;;
7753;SDS011;3921;42.266;23.122;2023-05-31T06:09:01;12.97;;;7.50;;
7753;SDS011;3921;42.266;23.122;2023-05-31T06:11:28;16.37;;;7.17;;
7753;SDS011;3921;42.266;23.122;2023-05-31T06:13:56;14.80;;;7.80;;
7753;SDS011;3921;42.266;23.122;2023-05-31T06:16:23;13.40;;;8.77;;
7753;SDS011;3921;42.266;23.122;2023-05-31T06:18:50;13.07;;;7.93;;
7753;SDS011;3921;42.266;23.122;2023-05-31T06:21:19;10.63;;;8.07;;
7753;SDS011;3921;42.266;23.122;2023-05-31T06:23:46;14.33;;;8.00;;
7753;SDS011;3921;42.266;23.122;2023-05-31T06:26:13;10.93;;;7.70;;
7753;SDS011;3921;42.266;23.122;2023-05-31T06:28:40;14.13;;;7.97;;
7753;SDS011;3921;42.266;23.122;2023-05-31T06:31:07;12.17;;;8.03;;
7753;SDS011;3921;42.266;23.122;2023-05-31T06:33:36;13.17;;;7.47;;
7753;SDS011;3921;42.266;23.122;2023-05-31T06:36:03;14.03;;;7.53;;
7753;SDS011;3921;42.266;23.122;2023-05-31T06:38:32;12.27;;;7.70;;
7753;SDS011;3921;42.266;23.122;2023-05-31T06:40:59;16.63;;;7.63;;
7753;SDS011;3921;42.266;23.122;2023-05-31T06:43:26;10.03;;;6.37;;
7753;SDS011;3921;42.266;23.122;2023-05-31T06:45:53;11.50;;;6.80;;
7753;SDS011;3921;42.266;23.122;2023-05-31T06:48:20;12.67;;;7.10;;
7753;SDS011;3921;42.266;23.122;2023-05-31T06:50:47;11.00;;;7.30;;
7753;SDS011;3921;42.266;23.122;2023-05-31T06:53:13;12.70;;;7.80;;
7753;SDS011;3921;42.266;23.122;2023-05-31T06:55:42;11.37;;;6.87;;
7753;SDS011;3921;42.266;23.122;2023-05-31T06:58:09;13.17;;;7.23;;
7753;SDS011;3921;42.266;23.122;2023-05-31T07:00:36;13.63;;;7.50;;
7753;SDS011;3921;42.266;23.122;2023-05-31T07:03:03;10.40;;;7.10;;
7753;SDS011;3921;42.266;23.122;2023-05-31T07:05:31;10.13;;;6.97;;
7753;SDS011;3921;42.266;23.122;2023-05-31T07:07:58;9.67;;;6.40;;
7753;SDS011;3921;42.266;23.122;2023-05-31T07:10:25;9.73;;;7.37;;
7753;SDS011;3921;42.266;23.122;2023-05-31T07:12:54;9.23;;;7.23;;
7753;SDS011;3921;42.266;23.122;2023-05-31T07:15:21;12.43;;;7.00;;
7753;SDS011;3921;42.266;23.122;2023-05-31T07:17:48;11.03;;;7.43;;
7753;SDS011;3921;42.266;23.122;2023-05-31T07:20:15;14.37;;;8.07;;
7753;SDS011;3921;42.266;23.122;2023-05-31T07:22:42;11.13;;;7.77;;
7753;SDS011;3921;42.266;23.122;2023-05-31T07:25:09;12.00;;;7.30;;
7753;SDS011;3921;42.266;23.122;2023-05-31T07:27:36;10.27;;;7.67;;
7753;SDS011;3921;42.266;23.122;2023-05-31T07:30:05;15.73;;;7.33;;
7753;SDS011;3921;42.266;23.122;2023-05-31T07:32:33;12.13;;;7.77;;
7753;SDS011;3921;42.266;23.122;2023-05-31T07:35:00;9.30;;;7.50;;
7753;SDS011;3921;42.266;23.122;2023-05-31T07:37:27;10.57;;;7.53;;
7753;SDS011;3921;42.266;23.122;2023-05-31T07:39:54;12.27;;;7.17;;
7753;SDS011;3921;42.266;23.122;2023-05-31T07:42:20;11.10;;;6.87;;
7753;SDS011;3921;42.266;23.122;2023-05-31T07:44:47;8.23;;;7.03;;
7753;SDS011;3921;42.266;23.122;2023-05-31T07:47:16;8.03;;;6.60;;
7753;SDS011;3921;42.266;23.122;2023-05-31T07:49:44;8.83;;;6.83;;
7753;SDS011;3921;42.266;23.122;2023-05-31T07:52:11;8.50;;;6.70;;
7753;SDS011;3921;42.266;23.122;2023-05-31T07:54:38;9.60;;;7.03;;
7753;SDS011;3921;42.266;23.122;2023-05-31T07:57:05;10.07;;;7.37;;
7753;SDS011;3921;42.266;23.122;2023-05-31T07:59:32;12.33;;;7.93;;
7753;SDS011;3921;42.266;23.122;2023-05-31T08:01:59;14.23;;;9.07;;
7753;SDS011;3921;42.266;23.122;2023-05-31T08:04:27;14.13;;;8.83;;
7753;SDS011;3921;42.266;23.122;2023-05-31T08:06:54;13.70;;;8.60;;
7753;SDS011;3921;42.266;23.122;2023-05-31T08:09:21;12.40;;;9.30;;
7753;SDS011;3921;42.266;23.122;2023-05-31T08:11:48;14.47;;;9.80;;
7753;SDS011;3921;42.266;23.122;2023-05-31T08:14:15;14.77;;;9.33;;
7753;SDS011;3921;42.266;23.122;2023-05-31T08:16:42;15.70;;;8.60;;
7753;SDS011;3921;42.266;23.122;2023-05-31T08:19:10;13.83;;;8.13;;
7753;SDS011;3921;42.266;23.122;2023-05-31T08:21:39;11.00;;;8.23;;
7753;SDS011;3921;42.266;23.122;2023-05-31T08:24:06;14.50;;;7.80;;
7753;SDS011;3921;42.266;23.122;2023-05-31T08:26:33;14.63;;;7.23;;
7753;SDS011;3921;42.266;23.122;2023-05-31T08:29:00;12.03;;;6.97;;
7753;SDS011;3921;42.266;23.122;2023-05-31T08:31:27;16.13;;;8.33;;
7753;SDS011;3921;42.266;23.122;2023-05-31T08:33:55;13.10;;;8.43;;
7753;SDS011;3921;42.266;23.122;2023-05-31T08:36:23;13.10;;;7.20;;
7753;SDS011;3921;42.266;23.122;2023-05-31T08:38:53;10.07;;;7.90;;
7753;SDS011;3921;42.266;23.122;2023-05-31T08:41:21;10.07;;;6.90;;
7753;SDS011;3921;42.266;23.122;2023-05-31T08:43:48;9.33;;;7.00;;
7753;SDS011;3921;42.266;23.122;2023-05-31T08:46:15;10.53;;;7.03;;
7753;SDS011;3921;42.266;23.122;2023-05-31T08:48:43;9.10;;;6.60;;
7753;SDS011;3921;42.266;23.122;2023-05-31T08:51:16;12.00;;;7.17;;
7753;SDS011;3921;42.266;23.122;2023-05-31T08:53:43;9.97;;;6.93;;
7753;SDS011;3921;42.266;23.122;2023-05-31T08:56:14;9.80;;;6.93;;
7753;SDS011;3921;42.266;23.122;2023-05-31T08:58:42;8.87;;;5.47;;
7753;SDS011;3921;42.266;23.122;2023-05-31T09:01:09;10.23;;;6.10;;
7753;SDS011;3921;42.266;23.122;2023-05-31T09:03:37;8.27;;;5.93;;
7753;SDS011;3921;42.266;23.122;2023-05-31T09:06:04;10.47;;;6.17;;
7753;SDS011;3921;42.266;23.122;2023-05-31T09:08:31;5.37;;;4.87;;
7753;SDS011;3921;42.266;23.122;2023-05-31T09:10:59;7.70;;;5.80;;
7753;SDS011;3921;42.266;23.122;2023-05-31T09:13:28;7.83;;;5.93;;
7753;SDS011;3921;42.266;23.122;2023-05-31T09:15:56;9.53;;;5.87;;
7753;SDS011;3921;42.266;23.122;2023-05-31T09:18:24;7.10;;;5.23;;
7753;SDS011;3921;42.266;23.122;2023-05-31T09:20:55;7.10;;;5.50;;
7753;SDS011;3921;42.266;23.122;2023-05-31T09:23:23;7.37;;;5.77;;
7753;SDS011;3921;42.266;23.122;2023-05-31T09:25:50;9.83;;;5.97;;
7753;SDS011;3921;42.266;23.122;2023-05-31T09:28:19;6.77;;;5.10;;
7753;SDS011;3921;42.266;23.122;2023-05-31T09:31:01;7.63;;;5.17;;
7753;SDS011;3921;42.266;23.122;2023-05-31T09:33:39;8.03;;;5.43;;
7753;SDS011;3921;42.266;23.122;2023-05-31T09:36:08;8.30;;;5.93;;
7753;SDS011;3921;42.266;23.122;2023-05-31T09:38:35;5.57;;;4.90;;
7753;SDS011;3921;42.266;23.122;2023-05-31T09:41:13;5.93;;;4.87;;
7753;SDS011;3921;42.266;23.122;2023-05-31T09:43:40;6.30;;;5.20;;
7753;SDS011;3921;42.266;23.122;2023-05-31T09:46:13;7.80;;;5.40;;
7753;SDS011;3921;42.266;23.122;2023-05-31T09:48:41;8.43;;;5.00;;
7753;SDS011;3921;42.266;23.122;2023-05-31T09:51:09;6.10;;;4.50;;
7753;SDS011;3921;42.266;23.122;2023-05-31T09:53:38;6.30;;;4.67;;
7753;SDS011;3921;42.266;23.122;2023-05-31T09:56:09;13.37;;;6.60;;
7753;SDS011;3921;42.266;23.122;2023-05-31T09:58:36;10.07;;;5.50;;
7753;SDS011;3921;42.266;23.122;2023-05-31T10:01:03;11.37;;;5.67;;
7753;SDS011;3921;42.266;23.122;2023-05-31T10:03:32;13.00;;;7.83;;
7753;SDS011;3921;42.266;23.122;2023-05-31T10:06:01;13.03;;;7.70;;
7753;SDS011;3921;42.266;23.122;2023-05-31T10:08:29;10.13;;;5.77;;
7753;SDS011;3921;42.266;23.122;2023-05-31T10:10:58;11.63;;;5.07;;
7753;SDS011;3921;42.266;23.122;2023-05-31T10:13:26;8.73;;;4.50;;
7753;SDS011;3921;42.266;23.122;2023-05-31T10:15:54;5.87;;;4.87;;
7753;SDS011;3921;42.266;23.122;2023-05-31T10:18:25;5.33;;;4.83;;
7753;SDS011;3921;42.266;23.122;2023-05-31T10:21:00;4.97;;;4.40;;
7753;SDS011;3921;42.266;23.122;2023-05-31T10:23:35;4.90;;;4.40;;
7753;SDS011;3921;42.266;23.122;2023-05-31T10:26:09;5.57;;;3.67;;
7753;SDS011;3921;42.266;23.122;2023-05-31T10:28:43;4.43;;;3.47;;
7753;SDS011;3921;42.266;23.122;2023-05-31T10:31:17;4.60;;;3.67;;
7753;SDS011;3921;42.266;23.122;2023-05-31T10:33:47;4.63;;;3.77;;
7753;SDS011;3921;42.266;23.122;2023-05-31T10:36:21;5.27;;;3.60;;
7753;SDS011;3921;42.266;23.122;2023-05-31T10:38:50;4.50;;;3.50;;
7753;SDS011;3921;42.266;23.122;2023-05-31T10:41:23;4.33;;;3.37;;
7753;SDS011;3921;42.266;23.122;2023-05-31T10:43:56;5.17;;;3.40;;
7753;SDS011;3921;42.266;23.122;2023-05-31T10:46:28;5.47;;;3.83;;
7753;SDS011;3921;42.266;23.122;2023-05-31T10:48:59;5.00;;;3.33;;
7753;SDS011;3921;42.266;23.122;2023-05-31T10:51:38;3.43;;;2.90;;
7753;SDS011;3921;42.266;23.122;2023-05-31T10:54:06;3.50;;;3.03;;
7753;SDS011;3921;42.266;23.122;2023-05-31T10:56:35;4.20;;;2.97;;
7753;SDS011;3921;42.266;23.122;2023-05-31T10:59:03;2.60;;;2.30;;
7753;SDS011;3921;42.266;23.122;2023-05-31T11:01:30;3.17;;;2.63;;
7753;SDS011;3921;42.266;23.122;2023-05-31T11:03:57;2.57;;;2.30;;
7753;SDS011;3921;42.266;23.122;2023-05-31T11:06:26;3.77;;;2.47;;
7753;SDS011;3921;42.266;23.122;2023-05-31T11:08:58;2.87;;;2.20;;
7753;SDS011;3921;42.266;23.122;2023-05-31T11:11:27;2.70;;;2.50;;
7753;SDS011;3921;42.266;23.122;2023-05-31T11:14:22;3.60;;;2.60;;
7753;SDS011;3921;42.266;23.122;2023-05-31T11:19:41;2.97;;;2.70;;
7753;SDS011;3921;42.266;23.122;2023-05-31T11:22:09;2.90;;;2.40;;
7753;SDS011;3921;42.266;23.122;2023-05-31T11:24:47;3.03;;;2.57;;
7753;SDS011;3921;42.266;23.122;2023-05-31T11:27:15;2.93;;;2.07;;
7753;SDS011;3921;42.266;23.122;2023-05-31T11:29:55;2.23;;;2.07;;
7753;SDS011;3921;42.266;23.122;2023-05-31T11:35:21;2.10;;;1.90;;
7753;SDS011;3921;42.266;23.122;2023-05-31T11:37:49;2.10;;;1.90;;
7753;SDS011;3921;42.266;23.122;2023-05-31T11:40:28;1.87;;;1.77;;
7753;SDS011;3921;42.266;23.122;2023-05-31T11:43:01;3.37;;;2.20;;
7753;SDS011;3921;42.266;23.122;2023-05-31T11:45:31;2.80;;;2.30;;
7753;SDS011;3921;42.266;23.122;2023-05-31T11:48:04;3.13;;;1.90;;
7753;SDS011;3921;42.266;23.122;2023-05-31T11:50:41;2.93;;;1.90;;
7753;SDS011;3921;42.266;23.122;2023-05-31T11:53:09;2.13;;;2.00;;
7753;SDS011;3921;42.266;23.122;2023-05-31T11:55:38;2.00;;;1.67;;
7753;SDS011;3921;42.266;23.122;2023-05-31T11:58:10;3.77;;;1.87;;
7753;SDS011;3921;42.266;23.122;2023-05-31T12:00:42;1.70;;;1.60;;
7753;SDS011;3921;42.266;23.122;2023-05-31T12:03:13;2.43;;;2.00;;
7753;SDS011;3921;42.266;23.122;2023-05-31T12:05:42;3.10;;;1.70;;
7753;SDS011;3921;42.266;23.122;2023-05-31T12:08:10;2.30;;;1.67;;
7753;SDS011;3921;42.266;23.122;2023-05-31T12:10:40;2.53;;;1.83;;
7753;SDS011;3921;42.266;23.122;2023-05-31T12:13:07;2.30;;;2.00;;
7753;SDS011;3921;42.266;23.122;2023-05-31T12:15:35;3.00;;;1.97;;
7753;SDS011;3921;42.266;23.122;2023-05-31T12:18:02;3.43;;;2.40;;
7753;SDS011;3921;42.266;23.122;2023-05-31T12:20:29;2.33;;;2.07;;
7753;SDS011;3921;42.266;23.122;2023-05-31T12:25:46;2.63;;;1.90;;
7753;SDS011;3921;42.266;23.122;2023-05-31T12:28:15;2.90;;;2.17;;
7753;SDS011;3921;42.266;23.122;2023-05-31T12:30:43;3.57;;;2.20;;
7753;SDS011;3921;42.266;23.122;2023-05-31T12:33:10;2.97;;;2.10;;
7753;SDS011;3921;42.266;23.122;2023-05-31T12:35:41;2.30;;;2.10;;
7753;SDS011;3921;42.266;23.122;2023-05-31T12:38:12;3.00;;;2.20;;
7753;SDS011;3921;42.266;23.122;2023-05-31T12:40:40;3.33;;;2.63;;
7753;SDS011;3921;42.266;23.122;2023-05-31T12:43:10;2.60;;;2.40;;
7753;SDS011;3921;42.266;23.122;2023-05-31T12:45:38;4.90;;;2.60;;
7753;SDS011;3921;42.266;23.122;2023-05-31T12:48:07;5.67;;;2.90;;
7753;SDS011;3921;42.266;23.122;2023-05-31T12:50:35;3.87;;;2.80;;
7753;SDS011;3921;42.266;23.122;2023-05-31T12:53:04;3.40;;;2.63;;
7753;SDS011;3921;42.266;23.122;2023-05-31T12:55:32;4.93;;;3.00;;
7753;SDS011;3921;42.266;23.122;2023-05-31T12:58:01;6.53;;;4.10;;
7753;SDS011;3921;42.266;23.122;2023-05-31T13:00:31;5.47;;;4.07;;
7753;SDS011;3921;42.266;23.122;2023-05-31T13:02:59;4.43;;;3.30;;
7753;SDS011;3921;42.266;23.122;2023-05-31T13:05:25;3.20;;;2.77;;
7753;SDS011;3921;42.266;23.122;2023-05-31T13:07:52;4.33;;;3.37;;
7753;SDS011;3921;42.266;23.122;2023-05-31T13:10:22;4.07;;;2.83;;
7753;SDS011;3921;42.266;23.122;2023-05-31T13:12:48;7.23;;;3.80;;
7753;SDS011;3921;42.266;23.122;2023-05-31T13:15:15;6.30;;;3.33;;
7753;SDS011;3921;42.266;23.122;2023-05-31T13:17:44;7.03;;;3.00;;
7753;SDS011;3921;42.266;23.122;2023-05-31T13:20:11;6.67;;;3.40;;
7753;SDS011;3921;42.266;23.122;2023-05-31T13:22:40;8.53;;;3.40;;
7753;SDS011;3921;42.266;23.122;2023-05-31T13:25:09;8.30;;;3.63;;
7753;SDS011;3921;42.266;23.122;2023-05-31T13:27:36;11.97;;;4.03;;
7753;SDS011;3921;42.266;23.122;2023-05-31T13:30:06;9.13;;;3.93;;
7753;SDS011;3921;42.266;23.122;2023-05-31T13:32:38;4.97;;;3.50;;
7753;SDS011;3921;42.266;23.122;2023-05-31T13:35:07;5.57;;;3.60;;
7753;SDS011;3921;42.266;23.122;2023-05-31T13:37:37;9.77;;;3.37;;
7753;SDS011;3921;42.266;23.122;2023-05-31T13:40:05;6.93;;;3.60;;
7753;SDS011;3921;42.266;23.122;2023-05-31T13:42:33;16.63;;;4.40;;
7753;SDS011;3921;42.266;23.122;2023-05-31T13:45:00;6.87;;;3.60;;
7753;SDS011;3921;42.266;23.122;2023-05-31T13:47:29;7.10;;;4.30;;
7753;SDS011;3921;42.266;23.122;2023-05-31T13:49:56;6.37;;;3.67;;
7753;SDS011;3921;42.266;23.122;2023-05-31T13:52:25;10.63;;;5.83;;
7753;SDS011;3921;42.266;23.122;2023-05-31T13:54:52;9.00;;;4.60;;
7753;SDS011;3921;42.266;23.122;2023-05-31T13:57:19;6.73;;;5.03;;
7753;SDS011;3921;42.266;23.122;2023-05-31T13:59:46;6.10;;;4.60;;
7753;SDS011;3921;42.266;23.122;2023-05-31T14:02:13;10.10;;;4.53;;
7753;SDS011;3921;42.266;23.122;2023-05-31T14:04:39;8.43;;;4.80;;
7753;SDS011;3921;42.266;23.122;2023-05-31T14:07:06;12.10;;;4.57;;
7753;SDS011;3921;42.266;23.122;2023-05-31T14:09:35;7.10;;;3.77;;
7753;SDS011;3921;42.266;23.122;2023-05-31T14:12:02;7.97;;;4.33;;
7753;SDS011;3921;42.266;23.122;2023-05-31T14:14:29;9.93;;;4.30;;
7753;SDS011;3921;42.266;23.122;2023-05-31T14:16:56;7.43;;;3.80;;
7753;SDS011;3921;42.266;23.122;2023-05-31T14:19:25;7.53;;;4.20;;
7753;SDS011;3921;42.266;23.122;2023-05-31T14:21:52;4.13;;;3.50;;
7753;SDS011;3921;42.266;23.122;2023-05-31T14:24:20;8.63;;;3.30;;
7753;SDS011;3921;42.266;23.122;2023-05-31T14:26:48;5.50;;;2.77;;
7753;SDS011;3921;42.266;23.122;2023-05-31T14:29:15;8.33;;;3.27;;
7753;SDS011;3921;42.266;23.122;2023-05-31T14:31:42;3.47;;;3.07;;
7753;SDS011;3921;42.266;23.122;2023-05-31T14:34:11;3.90;;;3.00;;
7753;SDS011;3921;42.266;23.122;2023-05-31T14:36:41;4.80;;;3.17;;
7753;SDS011;3921;42.266;23.122;2023-05-31T14:39:08;7.57;;;3.37;;
7753;SDS011;3921;42.266;23.122;2023-05-31T14:41:37;3.27;;;2.97;;
7753;SDS011;3921;42.266;23.122;2023-05-31T14:44:05;5.43;;;3.23;;
7753;SDS011;3921;42.266;23.122;2023-05-31T14:46:32;5.87;;;3.33;;
7753;SDS011;3921;42.266;23.122;2023-05-31T14:48:59;4.30;;;3.20;;
7753;SDS011;3921;42.266;23.122;2023-05-31T14:51:26;4.80;;;3.50;;
7753;SDS011;3921;42.266;23.122;2023-05-31T14:53:55;4.20;;;2.93;;
7753;SDS011;3921;42.266;23.122;2023-05-31T14:56:22;4.33;;;2.80;;
7753;SDS011;3921;42.266;23.122;2023-05-31T14:58:51;5.03;;;3.23;;
7753;SDS011;3921;42.266;23.122;2023-05-31T15:01:20;6.37;;;3.70;;
7753;SDS011;3921;42.266;23.122;2023-05-31T15:03:50;4.77;;;3.30;;
7753;SDS011;3921;42.266;23.122;2023-05-31T15:06:16;4.93;;;3.50;;
7753;SDS011;3921;42.266;23.122;2023-05-31T15:08:43;5.20;;;3.67;;
7753;SDS011;3921;42.266;23.122;2023-05-31T15:11:10;4.83;;;3.50;;
7753;SDS011;3921;42.266;23.122;2023-05-31T15:13:38;4.10;;;3.70;;